sensor_id;sensor_type;location;lat;lon;timestamp;pressure;altitude;pressure_sealevel;temperature;humidity
22605;BME280;11469;49.024;8.246;2022-10-16T00:01:56;100199.16;;;15.70;100.00
22605;BME280;11469;49.024;8.246;2022-10-16T00:04:22;100197.16;;;15.70;100.00
22605;BME280;11469;49.024;8.246;2022-10-16T00:06:47;100197.56;;;15.72;100.00
22605;BME280;11469;49.024;8.246;2022-10-16T00:09:13;100186.25;;;15.72;100.00
22605;BME280;11469;49.024;8.246;2022-10-16T00:11:40;100186.25;;;15.72;100.00
22605;BME280;11469;49.024;8.246;2022-10-16T00:14:08;100190.28;;;15.71;100.00
22605;BME280;11469;49.024;8.246;2022-10-16T00:16:34;100187.47;;;15.71;100.00
22605;BME280;11469;49.024;8.246;2022-10-16T00:19:00;100186.25;;;15.72;100.00
22605;BME280;11469;49.024;8.246;2022-10-16T00:21:27;100185.84;;;15.74;100.00
22605;BME280;11469;49.024;8.246;2022-10-16T00:24:12;100183.44;;;15.76;100.00
22605;BME280;11469;49.024;8.246;2022-10-16T00:26:38;100189.47;;;15.71;100.00
22605;BME280;11469;49.024;8.246;2022-10-16T00:29:04;100195.13;;;15.71;100.00
22605;BME280;11469;49.024;8.246;2022-10-16T00:31:30;100199.56;;;15.72;100.00
22605;BME280;11469;49.024;8.246;2022-10-16T00:33:56;100196.75;;;15.75;100.00
22605;BME280;11469;49.024;8.246;2022-10-16T00:36:23;100196.34;;;15.73;100.00
22605;BME280;11469;49.024;8.246;2022-10-16T00:38:58;100203.63;;;15.74;100.00
22605;BME280;11469;49.024;8.246;2022-10-16T00:41:26;100191.91;;;15.76;100.00
22605;BME280;11469;49.024;8.246;2022-10-16T00:43:57;100187.88;;;15.77;100.00
22605;BME280;11469;49.024;8.246;2022-10-16T00:46:38;100186.66;;;15.78;100.00
22605;BME280;11469;49.024;8.246;2022-10-16T00:49:10;100186.66;;;15.74;100.00
22605;BME280;11469;49.024;8.246;2022-10-16T00:51:48;100193.13;;;15.75;100.00
22605;BME280;11469;49.024;8.246;2022-10-16T00:54:21;100196.75;;;15.79;100.00
22605;BME280;11469;49.024;8.246;2022-10-16T00:56:48;100198.38;;;15.76;100.00
22605;BME280;11469;49.024;8.246;2022-10-16T00:59:26;100199.59;;;15.75;100.00
22605;BME280;11469;49.024;8.246;2022-10-16T01:01:53;100205.22;;;15.75;100.00
22605;BME280;11469;49.024;8.246;2022-10-16T01:04:19;100207.25;;;15.75;100.00
22605;BME280;11469;49.024;8.246;2022-10-16T01:12:46;100212.88;;;15.68;100.00
22605;BME280;11469;49.024;8.246;2022-10-16T01:20:31;100206.84;;;15.69;100.00
22605;BME280;11469;49.024;8.246;2022-10-16T01:23:10;100203.19;;;15.69;100.00
22605;BME280;11469;49.024;8.246;2022-10-16T01:25:59;100208.84;;;15.72;100.00
22605;BME280;11469;49.024;8.246;2022-10-16T01:28:35;100192.31;;;15.71;100.00
22605;BME280;11469;49.024;8.246;2022-10-16T01:31:04;100191.91;;;15.69;100.00
22605;BME280;11469;49.024;8.246;2022-10-16T01:33:40;100194.31;;;15.70;100.00
22605;BME280;11469;49.024;8.246;2022-10-16T01:36:21;100191.50;;;15.67;100.00
22605;BME280;11469;49.024;8.246;2022-10-16T01:38:52;100193.50;;;15.66;100.00
22605;BME280;11469;49.024;8.246;2022-10-16T01:41:24;100195.13;;;15.67;100.00
22605;BME280;11469;49.024;8.246;2022-10-16T01:43:58;100198.34;;;15.66;100.00
22605;BME280;11469;49.024;8.246;2022-10-16T01:46:28;100193.09;;;15.68;100.00
22605;BME280;11469;49.024;8.246;2022-10-16T01:48:57;100187.88;;;15.70;100.00
22605;BME280;11469;49.024;8.246;2022-10-16T01:51:23;100192.31;;;15.67;100.00
22605;BME280;11469;49.024;8.246;2022-10-16T01:53:52;100195.13;;;15.64;100.00
22605;BME280;11469;49.024;8.246;2022-10-16T01:56:20;100184.63;;;15.68;100.00
22605;BME280;11469;49.024;8.246;2022-10-16T01:58:56;100190.28;;;15.64;100.00
22605;BME280;11469;49.024;8.246;2022-10-16T02:01:24;100194.34;;;15.59;100.00
22605;BME280;11469;49.024;8.246;2022-10-16T02:03:54;100199.13;;;15.55;100.00
22605;BME280;11469;49.024;8.246;2022-10-16T02:06:22;100203.16;;;15.51;100.00
22605;BME280;11469;49.024;8.246;2022-10-16T02:08:48;100204.75;;;15.45;100.00
22605;BME280;11469;49.024;8.246;2022-10-16T02:11:14;100214.41;;;15.40;100.00
22605;BME280;11469;49.024;8.246;2022-10-16T02:13:50;100211.59;;;15.37;100.00
22605;BME280;11469;49.024;8.246;2022-10-16T02:16:16;100202.69;;;15.35;100.00
22605;BME280;11469;49.024;8.246;2022-10-16T02:18:42;100206.72;;;15.34;100.00
22605;BME280;11469;49.024;8.246;2022-10-16T02:21:32;100204.31;;;15.32;100.00
22605;BME280;11469;49.024;8.246;2022-10-16T02:24:14;100219.22;;;15.33;100.00
22605;BME280;11469;49.024;8.246;2022-10-16T02:26:49;100228.91;;;15.32;100.00
22605;BME280;11469;49.024;8.246;2022-10-16T02:29:20;100216.38;;;15.25;100.00
22605;BME280;11469;49.024;8.246;2022-10-16T02:31:50;100217.59;;;15.24;100.00
22605;BME280;11469;49.024;8.246;2022-10-16T02:34:21;100217.59;;;15.24;100.00
22605;BME280;11469;49.024;8.246;2022-10-16T02:36:48;100209.94;;;15.25;100.00
22605;BME280;11469;49.024;8.246;2022-10-16T02:39:15;100215.19;;;15.26;100.00
22605;BME280;11469;49.024;8.246;2022-10-16T02:41:42;100210.72;;;15.25;100.00
22605;BME280;11469;49.024;8.246;2022-10-16T02:44:07;100219.19;;;15.25;100.00
22605;BME280;11469;49.024;8.246;2022-10-16T02:46:33;100219.59;;;15.24;100.00
22605;BME280;11469;49.024;8.246;2022-10-16T02:48:58;100220.41;;;15.24;100.00
22605;BME280;11469;49.024;8.246;2022-10-16T02:51:23;100225.63;;;15.19;100.00
22605;BME280;11469;49.024;8.246;2022-10-16T02:53:49;100225.22;;;15.20;100.00
22605;BME280;11469;49.024;8.246;2022-10-16T02:56:14;100233.28;;;15.18;100.00
22605;BME280;11469;49.024;8.246;2022-10-16T02:58:40;100239.72;;;15.15;100.00
22605;BME280;11469;49.024;8.246;2022-10-16T03:01:05;100247.78;;;15.13;100.00
22605;BME280;11469;49.024;8.246;2022-10-16T03:03:31;100238.94;;;15.11;100.00
22605;BME280;11469;49.024;8.246;2022-10-16T03:05:56;100246.19;;;15.09;100.00
22605;BME280;11469;49.024;8.246;2022-10-16T03:08:21;100238.50;;;15.13;100.00
22605;BME280;11469;49.024;8.246;2022-10-16T03:10:49;100241.72;;;15.08;100.00
22605;BME280;11469;49.024;8.246;2022-10-16T03:13:15;100232.94;;;15.31;100.00
22605;BME280;11469;49.024;8.246;2022-10-16T03:15:40;100224.88;;;15.36;100.00
22605;BME280;11469;49.024;8.246;2022-10-16T03:18:06;100231.28;;;15.19;100.00
22605;BME280;11469;49.024;8.246;2022-10-16T03:20:31;100222.00;;;15.11;100.00
22605;BME280;11469;49.024;8.246;2022-10-16T03:22:57;100226.41;;;15.09;100.00
22605;BME280;11469;49.024;8.246;2022-10-16T03:25:22;100226.81;;;15.07;100.00
22605;BME280;11469;49.024;8.246;2022-10-16T03:27:47;100227.63;;;15.08;100.00
22605;BME280;11469;49.024;8.246;2022-10-16T03:30:13;100231.25;;;15.08;100.00
22605;BME280;11469;49.024;8.246;2022-10-16T03:32:38;100219.97;;;15.08;100.00
22605;BME280;11469;49.024;8.246;2022-10-16T03:35:04;100238.53;;;15.09;100.00
22605;BME280;11469;49.024;8.246;2022-10-16T03:37:29;100234.50;;;15.10;100.00
22605;BME280;11469;49.024;8.246;2022-10-16T03:39:55;100249.41;;;15.11;100.00
22605;BME280;11469;49.024;8.246;2022-10-16T03:42:20;100240.13;;;15.10;100.00
22605;BME280;11469;49.024;8.246;2022-10-16T03:44:46;100246.59;;;15.11;100.00
22605;BME280;11469;49.024;8.246;2022-10-16T03:47:11;100241.31;;;15.13;100.00
22605;BME280;11469;49.024;8.246;2022-10-16T03:49:36;100230.03;;;15.13;100.00
22605;BME280;11469;49.024;8.246;2022-10-16T03:52:02;100235.69;;;15.13;100.00
22605;BME280;11469;49.024;8.246;2022-10-16T03:54:27;100240.53;;;15.12;100.00
22605;BME280;11469;49.024;8.246;2022-10-16T03:56:52;100251.81;;;15.09;100.00
22605;BME280;11469;49.024;8.246;2022-10-16T03:59:18;100249.00;;;15.09;100.00
22605;BME280;11469;49.024;8.246;2022-10-16T04:01:43;100241.34;;;15.16;100.00
22605;BME280;11469;49.024;8.246;2022-10-16T04:04:09;100243.75;;;15.11;100.00
22605;BME280;11469;49.024;8.246;2022-10-16T04:06:34;100240.94;;;15.07;100.00
22605;BME280;11469;49.024;8.246;2022-10-16T04:09:00;100236.50;;;15.06;100.00
22605;BME280;11469;49.024;8.246;2022-10-16T04:11:25;100243.75;;;15.07;100.00
22605;BME280;11469;49.024;8.246;2022-10-16T04:13:50;100247.78;;;15.06;100.00
22605;BME280;11469;49.024;8.246;2022-10-16T04:16:16;100250.19;;;15.04;100.00
22605;BME280;11469;49.024;8.246;2022-10-16T04:18:41;100251.81;;;15.05;100.00
22605;BME280;11469;49.024;8.246;2022-10-16T04:21:07;100247.34;;;15.04;100.00
22605;BME280;11469;49.024;8.246;2022-10-16T04:23:33;100259.03;;;15.03;100.00
22605;BME280;11469;49.024;8.246;2022-10-16T04:25:59;100265.50;;;15.03;100.00
22605;BME280;11469;49.024;8.246;2022-10-16T04:28:25;100271.53;;;15.02;100.00
22605;BME280;11469;49.024;8.246;2022-10-16T04:30:51;100264.69;;;15.03;100.00
22605;BME280;11469;49.024;8.246;2022-10-16T04:33:16;100267.50;;;15.03;100.00
22605;BME280;11469;49.024;8.246;2022-10-16T04:35:41;100275.97;;;15.03;100.00
22605;BME280;11469;49.024;8.246;2022-10-16T04:38:07;100269.94;;;15.04;100.00
22605;BME280;11469;49.024;8.246;2022-10-16T04:40:32;100278.00;;;15.06;100.00
22605;BME280;11469;49.024;8.246;2022-10-16T04:42:58;100278.00;;;15.06;100.00
22605;BME280;11469;49.024;8.246;2022-10-16T04:45:24;100279.22;;;15.08;100.00
22605;BME280;11469;49.024;8.246;2022-10-16T04:47:50;100280.47;;;15.11;100.00
22605;BME280;11469;49.024;8.246;2022-10-16T04:50:15;100270.78;;;15.12;100.00
22605;BME280;11469;49.024;8.246;2022-10-16T04:52:41;100276.00;;;15.13;100.00
22605;BME280;11469;49.024;8.246;2022-10-16T04:55:07;100283.66;;;15.13;100.00
22605;BME280;11469;49.024;8.246;2022-10-16T04:57:32;100290.13;;;15.13;100.00
22605;BME280;11469;49.024;8.246;2022-10-16T04:59:58;100285.69;;;15.12;100.00
22605;BME280;11469;49.024;8.246;2022-10-16T05:02:24;100290.53;;;15.12;100.00
22605;BME280;11469;49.024;8.246;2022-10-16T05:04:49;100286.50;;;15.13;100.00
22605;BME280;11469;49.024;8.246;2022-10-16T05:07:15;100286.09;;;15.14;100.00
22605;BME280;11469;49.024;8.246;2022-10-16T05:09:40;100288.91;;;15.14;100.00
22605;BME280;11469;49.024;8.246;2022-10-16T05:12:06;100282.06;;;15.15;100.00
22605;BME280;11469;49.024;8.246;2022-10-16T05:14:31;100282.06;;;15.15;100.00
22605;BME280;11469;49.024;8.246;2022-10-16T05:16:56;100286.91;;;15.15;100.00
22605;BME280;11469;49.024;8.246;2022-10-16T05:19:22;100294.16;;;15.16;100.00
22605;BME280;11469;49.024;8.246;2022-10-16T05:21:47;100289.72;;;15.15;100.00
22605;BME280;11469;49.024;8.246;2022-10-16T05:24:13;100289.31;;;15.13;100.00
22605;BME280;11469;49.024;8.246;2022-10-16T05:26:38;100296.56;;;15.14;100.00
22605;BME280;11469;49.024;8.246;2022-10-16T05:29:03;100300.22;;;15.14;100.00
22605;BME280;11469;49.024;8.246;2022-10-16T05:31:29;100295.38;;;15.15;100.00
22605;BME280;11469;49.024;8.246;2022-10-16T05:34:00;100300.22;;;15.14;100.00
22605;BME280;11469;49.024;8.246;2022-10-16T05:36:26;100300.22;;;15.14;100.00
22605;BME280;11469;49.024;8.246;2022-10-16T05:38:53;100309.06;;;15.13;100.00
22605;BME280;11469;49.024;8.246;2022-10-16T05:41:18;100303.44;;;15.13;100.00
22605;BME280;11469;49.024;8.246;2022-10-16T05:43:48;100313.91;;;15.12;100.00
22605;BME280;11469;49.024;8.246;2022-10-16T05:46:14;100301.84;;;15.12;100.00
22605;BME280;11469;49.024;8.246;2022-10-16T05:48:40;100294.94;;;15.13;100.00
22605;BME280;11469;49.024;8.246;2022-10-16T05:51:07;100297.78;;;15.13;100.00
22605;BME280;11469;49.024;8.246;2022-10-16T05:53:35;100286.50;;;15.13;100.00
22605;BME280;11469;49.024;8.246;2022-10-16T05:56:01;100300.59;;;15.13;100.00
22605;BME280;11469;49.024;8.246;2022-10-16T05:58:32;100308.25;;;15.12;100.00
22605;BME280;11469;49.024;8.246;2022-10-16T06:01:19;100307.47;;;15.12;100.00
22605;BME280;11469;49.024;8.246;2022-10-16T06:03:46;100317.53;;;15.13;100.00
22605;BME280;11469;49.024;8.246;2022-10-16T06:06:14;100332.88;;;15.12;100.00
22605;BME280;11469;49.024;8.246;2022-10-16T06:08:41;100329.66;;;15.10;100.00
22605;BME280;11469;49.024;8.246;2022-10-16T06:11:09;100328.03;;;15.09;100.00
22605;BME280;11469;49.024;8.246;2022-10-16T06:13:35;100312.31;;;15.11;100.00
22605;BME280;11469;49.024;8.246;2022-10-16T06:16:02;100295.06;;;15.34;100.00
22605;BME280;11469;49.024;8.246;2022-10-16T06:18:28;100303.47;;;15.23;100.00
22605;BME280;11469;49.024;8.246;2022-10-16T06:20:55;100312.31;;;15.18;100.00
22605;BME280;11469;49.024;8.246;2022-10-16T06:23:20;100314.72;;;15.13;100.00
22605;BME280;11469;49.024;8.246;2022-10-16T06:25:46;100319.97;;;15.11;100.00
22605;BME280;11469;49.024;8.246;2022-10-16T06:28:13;100333.66;;;15.12;100.00
22605;BME280;11469;49.024;8.246;2022-10-16T06:30:39;100323.59;;;15.11;100.00
22605;BME280;11469;49.024;8.246;2022-10-16T06:33:05;100334.06;;;15.14;100.00
22605;BME280;11469;49.024;8.246;2022-10-16T06:35:30;100325.59;;;15.14;100.00
22605;BME280;11469;49.024;8.246;2022-10-16T06:37:57;100333.69;;;15.16;100.00
22605;BME280;11469;49.024;8.246;2022-10-16T06:40:22;100337.72;;;15.15;100.00
22605;BME280;11469;49.024;8.246;2022-10-16T06:42:48;100339.34;;;15.16;100.00
22605;BME280;11469;49.024;8.246;2022-10-16T06:45:13;100323.59;;;15.15;100.00
22605;BME280;11469;49.024;8.246;2022-10-16T06:47:38;100328.03;;;15.16;100.00
22605;BME280;11469;49.024;8.246;2022-10-16T06:50:04;100323.19;;;15.16;100.00
22605;BME280;11469;49.024;8.246;2022-10-16T06:52:32;100331.69;;;15.20;100.00
22605;BME280;11469;49.024;8.246;2022-10-16T06:54:58;100336.13;;;15.21;100.00
22605;BME280;11469;49.024;8.246;2022-10-16T06:57:23;100335.34;;;15.24;100.00
22605;BME280;11469;49.024;8.246;2022-10-16T06:59:49;100339.78;;;15.25;100.00
22605;BME280;11469;49.024;8.246;2022-10-16T07:02:14;100346.25;;;15.25;100.00
22605;BME280;11469;49.024;8.246;2022-10-16T07:04:40;100346.28;;;15.29;100.00
22605;BME280;11469;49.024;8.246;2022-10-16T07:07:05;100350.72;;;15.34;100.00
22605;BME280;11469;49.024;8.246;2022-10-16T07:09:30;100361.25;;;15.37;100.00
22605;BME280;11469;49.024;8.246;2022-10-16T07:11:56;100370.94;;;15.39;100.00
22605;BME280;11469;49.024;8.246;2022-10-16T07:14:21;100368.91;;;15.40;100.00
22605;BME280;11469;49.024;8.246;2022-10-16T07:16:47;100389.53;;;15.44;100.00
22605;BME280;11469;49.024;8.246;2022-10-16T07:19:14;100388.34;;;15.48;100.00
22605;BME280;11469;49.024;8.246;2022-10-16T07:21:42;100391.16;;;15.48;100.00
22605;BME280;11469;49.024;8.246;2022-10-16T07:24:11;100390.38;;;15.51;100.00
22605;BME280;11469;49.024;8.246;2022-10-16T07:26:38;100400.88;;;15.54;100.00
22605;BME280;11469;49.024;8.246;2022-10-16T07:29:06;100398.09;;;15.58;100.00
22605;BME280;11469;49.024;8.246;2022-10-16T07:31:32;100392.00;;;15.56;100.00
22605;BME280;11469;49.024;8.246;2022-10-16T07:33:59;100390.00;;;15.60;100.00
22605;BME280;11469;49.024;8.246;2022-10-16T07:36:25;100403.38;;;15.67;100.00
22605;BME280;11469;49.024;8.246;2022-10-16T07:38:50;100405.03;;;15.75;100.00
22605;BME280;11469;49.024;8.246;2022-10-16T07:41:17;100412.75;;;15.85;100.00
22605;BME280;11469;49.024;8.246;2022-10-16T07:43:48;100412.38;;;15.90;100.00
22605;BME280;11469;49.024;8.246;2022-10-16T07:46:14;100420.47;;;15.95;100.00
22605;BME280;11469;49.024;8.246;2022-10-16T07:48:40;100420.47;;;15.99;100.00
22605;BME280;11469;49.024;8.246;2022-10-16T07:51:10;100425.34;;;16.02;100.00
22605;BME280;11469;49.024;8.246;2022-10-16T07:53:37;100433.03;;;16.05;100.00
22605;BME280;11469;49.024;8.246;2022-10-16T07:56:05;100437.44;;;16.09;100.00
22605;BME280;11469;49.024;8.246;2022-10-16T07:58:31;100434.25;;;16.14;100.00
22605;BME280;11469;49.024;8.246;2022-10-16T08:00:57;100428.19;;;16.16;100.00
22605;BME280;11469;49.024;8.246;2022-10-16T08:03:23;100414.06;;;16.19;100.00
22605;BME280;11469;49.024;8.246;2022-10-16T08:05:49;100420.53;;;16.23;100.00
22605;BME280;11469;49.024;8.246;2022-10-16T08:08:16;100428.25;;;16.34;100.00
22605;BME280;11469;49.024;8.246;2022-10-16T08:10:42;100422.63;;;16.41;100.00
22605;BME280;11469;49.024;8.246;2022-10-16T08:13:07;100423.03;;;16.50;100.00
22605;BME280;11469;49.024;8.246;2022-10-16T08:15:33;100426.69;;;16.54;100.00
22605;BME280;11469;49.024;8.246;2022-10-16T08:18:04;100429.50;;;16.57;100.00
22605;BME280;11469;49.024;8.246;2022-10-16T08:20:30;100426.66;;;16.61;100.00
22605;BME280;11469;49.024;8.246;2022-10-16T08:22:56;100427.88;;;16.64;100.00
22605;BME280;11469;49.024;8.246;2022-10-16T08:25:23;100424.69;;;16.72;100.00
22605;BME280;11469;49.024;8.246;2022-10-16T08:27:48;100435.22;;;16.79;100.00
22605;BME280;11469;49.024;8.246;2022-10-16T08:30:15;100441.69;;;16.83;100.00
22605;BME280;11469;49.024;8.246;2022-10-16T08:32:40;100447.34;;;16.90;100.00
22605;BME280;11469;49.024;8.246;2022-10-16T08:35:09;100455.44;;;16.99;100.00
22605;BME280;11469;49.024;8.246;2022-10-16T08:37:36;100466.75;;;17.06;100.00
22605;BME280;11469;49.024;8.246;2022-10-16T08:40:01;100465.94;;;17.12;100.00
22605;BME280;11469;49.024;8.246;2022-10-16T08:50:49;100479.66;;;17.49;100.00
22605;BME280;11469;49.024;8.246;2022-10-16T08:53:43;100482.47;;;17.60;100.00
22605;BME280;11469;49.024;8.246;2022-10-16T08:56:09;100481.28;;;17.68;100.00
22605;BME280;11469;49.024;8.246;2022-10-16T08:58:35;100484.53;;;17.70;100.00
22605;BME280;11469;49.024;8.246;2022-10-16T09:01:03;100489.38;;;17.73;100.00
22605;BME280;11469;49.024;8.246;2022-10-16T09:04:07;100495.44;;;17.79;100.00
22605;BME280;11469;49.024;8.246;2022-10-16T09:06:45;100499.88;;;17.83;100.00
22605;BME280;11469;49.024;8.246;2022-10-16T09:20:18;100522.19;;;17.74;100.00
22605;BME280;11469;49.024;8.246;2022-10-16T09:22:45;100522.59;;;17.73;100.00
22605;BME280;11469;49.024;8.246;2022-10-16T09:25:15;100529.88;;;17.70;100.00
22605;BME280;11469;49.024;8.246;2022-10-16T09:27:44;100526.22;;;17.70;100.00
22605;BME280;11469;49.024;8.246;2022-10-16T09:30:16;100521.34;;;17.77;100.00
22605;BME280;11469;49.024;8.246;2022-10-16T09:32:44;100525.78;;;17.93;100.00
22605;BME280;11469;49.024;8.246;2022-10-16T09:35:37;100519.22;;;18.10;100.00
22605;BME280;11469;49.024;8.246;2022-10-16T09:38:01;100524.03;;;18.27;100.00
22605;BME280;11469;49.024;8.246;2022-10-16T09:40:29;100531.22;;;18.49;100.00
22605;BME280;11469;49.024;8.246;2022-10-16T09:43:02;100534.84;;;18.61;100.00
22605;BME280;11469;49.024;8.246;2022-10-16T09:45:28;100542.06;;;18.79;100.00
22605;BME280;11469;49.024;8.246;2022-10-16T09:47:54;100539.56;;;18.88;100.00
22605;BME280;11469;49.024;8.246;2022-10-16T09:50:25;100542.31;;;18.99;100.00
22605;BME280;11469;49.024;8.246;2022-10-16T09:53:04;100534.22;;;18.98;95.52
22605;BME280;11469;49.024;8.246;2022-10-16T09:55:29;100539.03;;;19.08;94.20
22605;BME280;11469;49.024;8.246;2022-10-16T09:57:55;100542.22;;;19.17;95.59
22605;BME280;11469;49.024;8.246;2022-10-16T10:00:22;100547.09;;;19.16;93.24
22605;BME280;11469;49.024;8.246;2022-10-16T10:02:48;100549.84;;;19.27;95.23
22605;BME280;11469;49.024;8.246;2022-10-16T10:05:19;100552.28;;;19.25;94.07
22605;BME280;11469;49.024;8.246;2022-10-16T10:07:46;100555.09;;;19.32;93.18
22605;BME280;11469;49.024;8.246;2022-10-16T10:10:26;100552.56;;;19.41;93.46
22605;BME280;11469;49.024;8.246;2022-10-16T10:12:53;100554.13;;;19.53;92.68
22605;BME280;11469;49.024;8.246;2022-10-16T10:15:19;100557.72;;;19.57;89.57
22605;BME280;11469;49.024;8.246;2022-10-16T10:17:53;100558.47;;;19.65;91.27
22605;BME280;11469;49.024;8.246;2022-10-16T10:20:24;100560.09;;;19.66;88.71
22605;BME280;11469;49.024;8.246;2022-10-16T10:22:50;100557.97;;;19.77;91.07
22605;BME280;11469;49.024;8.246;2022-10-16T10:25:43;100555.34;;;19.93;90.78
22605;BME280;11469;49.024;8.246;2022-10-16T10:28:28;100556.06;;;20.04;88.88
22605;BME280;11469;49.024;8.246;2022-10-16T10:31:17;100550.25;;;20.15;87.49
22605;BME280;11469;49.024;8.246;2022-10-16T10:36:42;100547.09;;;20.06;85.73
22605;BME280;11469;49.024;8.246;2022-10-16T10:39:35;100547.13;;;20.02;87.72
22605;BME280;11469;49.024;8.246;2022-10-16T10:44:48;100567.56;;;19.90;89.50
22605;BME280;11469;49.024;8.246;2022-10-16T10:47:40;100567.72;;;19.76;88.88
22605;BME280;11469;49.024;8.246;2022-10-16T11:01:06;100562.59;;;20.01;90.03
22605;BME280;11469;49.024;8.246;2022-10-16T11:06:24;100564.31;;;20.29;86.87
22605;BME280;11469;49.024;8.246;2022-10-16T11:09:12;100562.94;;;20.44;87.65
22605;BME280;11469;49.024;8.246;2022-10-16T11:11:46;100560.28;;;20.61;85.75
22605;BME280;11469;49.024;8.246;2022-10-16T11:14:26;100564.19;;;20.74;84.22
22605;BME280;11469;49.024;8.246;2022-10-16T11:16:57;100552.56;;;20.88;82.79
22605;BME280;11469;49.024;8.246;2022-10-16T11:24:46;100543.41;;;21.04;81.30
22605;BME280;11469;49.024;8.246;2022-10-16T11:27:20;100537.28;;;21.05;79.57
22605;BME280;11469;49.024;8.246;2022-10-16T11:30:00;100524.09;;;21.15;79.30
22605;BME280;11469;49.024;8.246;2022-10-16T11:32:38;100535.41;;;21.22;78.95
22605;BME280;11469;49.024;8.246;2022-10-16T11:35:18;100532.44;;;21.29;78.97
22605;BME280;11469;49.024;8.246;2022-10-16T11:37:46;100532.75;;;21.35;78.26
22605;BME280;11469;49.024;8.246;2022-10-16T11:40:34;100531.03;;;21.41;78.04
22605;BME280;11469;49.024;8.246;2022-10-16T11:43:17;100533.88;;;21.41;76.09
22605;BME280;11469;49.024;8.246;2022-10-16T11:45:51;100529.66;;;21.49;76.76
22605;BME280;11469;49.024;8.246;2022-10-16T11:48:38;100527.00;;;21.62;75.77
22605;BME280;11469;49.024;8.246;2022-10-16T11:51:16;100535.00;;;21.70;76.06
22605;BME280;11469;49.024;8.246;2022-10-16T11:53:53;100533.34;;;21.73;74.84
22605;BME280;11469;49.024;8.246;2022-10-16T11:56:21;100529.94;;;21.78;75.22
22605;BME280;11469;49.024;8.246;2022-10-16T11:58:58;100525.50;;;21.77;74.20
22605;BME280;11469;49.024;8.246;2022-10-16T12:07:08;100521.03;;;21.76;75.15
22605;BME280;11469;49.024;8.246;2022-10-16T12:09:40;100527.91;;;21.78;74.75
22605;BME280;11469;49.024;8.246;2022-10-16T12:12:25;100523.69;;;21.86;74.74
22605;BME280;11469;49.024;8.246;2022-10-16T12:15:17;100523.75;;;21.83;73.34
22605;BME280;11469;49.024;8.246;2022-10-16T12:17:43;100530.69;;;21.82;74.51
22605;BME280;11469;49.024;8.246;2022-10-16T12:22:41;100525.84;;;21.79;74.41
22605;BME280;11469;49.024;8.246;2022-10-16T12:27:55;100515.13;;;21.86;75.78
22605;BME280;11469;49.024;8.246;2022-10-16T12:30:24;100524.78;;;21.93;76.48
22605;BME280;11469;49.024;8.246;2022-10-16T12:32:54;100516.53;;;21.98;76.11
22605;BME280;11469;49.024;8.246;2022-10-16T12:35:23;100516.91;;;22.00;74.92
22605;BME280;11469;49.024;8.246;2022-10-16T12:37:49;100514.44;;;22.02;75.51
22605;BME280;11469;49.024;8.246;2022-10-16T12:42:47;100518.09;;;22.03;74.25
22605;BME280;11469;49.024;8.246;2022-10-16T12:45:42;100502.84;;;21.90;72.45
22605;BME280;11469;49.024;8.246;2022-10-16T12:48:21;100502.91;;;21.86;75.17
22605;BME280;11469;49.024;8.246;2022-10-16T12:50:47;100508.38;;;21.77;72.54
22605;BME280;11469;49.024;8.246;2022-10-16T12:53:22;100519.50;;;21.71;75.07
22605;BME280;11469;49.024;8.246;2022-10-16T12:58:59;100520.75;;;21.47;76.72
22605;BME280;11469;49.024;8.246;2022-10-16T13:04:13;100526.25;;;21.34;76.95
22605;BME280;11469;49.024;8.246;2022-10-16T13:06:58;100525.91;;;21.29;77.39
22605;BME280;11469;49.024;8.246;2022-10-16T13:09:39;100530.97;;;21.21;76.54
22605;BME280;11469;49.024;8.246;2022-10-16T13:12:49;100527.75;;;21.15;76.08
22605;BME280;11469;49.024;8.246;2022-10-16T13:23:59;100520.44;;;20.87;77.22
22605;BME280;11469;49.024;8.246;2022-10-16T13:29:01;100510.97;;;20.94;76.85
22605;BME280;11469;49.024;8.246;2022-10-16T13:31:28;100504.59;;;20.86;77.59
22605;BME280;11469;49.024;8.246;2022-10-16T13:33:58;100497.31;;;20.82;77.42
22605;BME280;11469;49.024;8.246;2022-10-16T13:36:42;100492.13;;;20.77;78.06
22605;BME280;11469;49.024;8.246;2022-10-16T13:39:21;100503.97;;;20.75;78.55
22605;BME280;11469;49.024;8.246;2022-10-16T13:42:00;100507.66;;;20.72;79.27
22605;BME280;11469;49.024;8.246;2022-10-16T13:44:26;100512.94;;;20.74;79.61
22605;BME280;11469;49.024;8.246;2022-10-16T13:47:00;100522.31;;;20.71;80.14
22605;BME280;11469;49.024;8.246;2022-10-16T13:49:25;100515.44;;;20.68;80.91
22605;BME280;11469;49.024;8.246;2022-10-16T13:51:56;100507.28;;;20.70;81.68
22605;BME280;11469;49.024;8.246;2022-10-16T13:54:22;100511.41;;;20.66;82.24
22605;BME280;11469;49.024;8.246;2022-10-16T13:56:48;100513.50;;;20.62;82.86
22605;BME280;11469;49.024;8.246;2022-10-16T14:01:52;100518.06;;;20.56;84.29
22605;BME280;11469;49.024;8.246;2022-10-16T14:04:19;100519.72;;;20.53;85.01
22605;BME280;11469;49.024;8.246;2022-10-16T14:06:46;100515.25;;;20.52;85.53
22605;BME280;11469;49.024;8.246;2022-10-16T14:09:28;100519.72;;;20.53;85.63
22605;BME280;11469;49.024;8.246;2022-10-16T14:12:00;100521.28;;;20.58;85.44
22605;BME280;11469;49.024;8.246;2022-10-16T14:14:40;100515.91;;;20.63;85.29
22605;BME280;11469;49.024;8.246;2022-10-16T14:17:13;100519.47;;;20.71;85.00
22605;BME280;11469;49.024;8.246;2022-10-16T14:19:39;100518.50;;;20.81;84.54
22605;BME280;11469;49.024;8.246;2022-10-16T14:22:28;100514.63;;;20.95;83.96
22605;BME280;11469;49.024;8.246;2022-10-16T14:24:55;100510.44;;;21.03;84.82